sensor_id;sensor_type;location;lat;lon;timestamp;P1;durP1;ratioP1;P2;durP2;ratioP2
46719;SDS011;32452;51.382;-0.002;2022-10-23T00:00:09;20.33;;;3.70;;
46719;SDS011;32452;51.382;-0.002;2022-10-23T00:02:55;13.90;;;2.97;;
46719;SDS011;32452;51.382;-0.002;2022-10-23T00:05:46;13.95;;;3.42;;
46719;SDS011;32452;51.382;-0.002;2022-10-23T00:08:44;12.45;;;3.30;;
46719;SDS011;32452;51.382;-0.002;2022-10-23T00:11:31;16.08;;;4.78;;
46719;SDS011;32452;51.382;-0.002;2022-10-23T00:14:19;11.52;;;3.10;;
46719;SDS011;32452;51.382;-0.002;2022-10-23T00:17:07;12.65;;;3.17;;
46719;SDS011;32452;51.382;-0.002;2022-10-23T00:20:12;13.80;;;3.45;;
46719;SDS011;32452;51.382;-0.002;2022-10-23T00:22:59;14.23;;;4.03;;
46719;SDS011;32452;51.382;-0.002;2022-10-23T00:25:45;12.48;;;3.40;;
46719;SDS011;32452;51.382;-0.002;2022-10-23T00:28:48;18.30;;;4.28;;
46719;SDS011;32452;51.382;-0.002;2022-10-23T00:31:35;19.33;;;3.83;;
46719;SDS011;32452;51.382;-0.002;2022-10-23T00:34:21;18.40;;;3.42;;
46719;SDS011;32452;51.382;-0.002;2022-10-23T00:37:06;10.27;;;3.17;;
46719;SDS011;32452;51.382;-0.002;2022-10-23T00:39:54;14.52;;;3.08;;
46719;SDS011;32452;51.382;-0.002;2022-10-23T00:42:39;15.05;;;3.78;;
46719;SDS011;32452;51.382;-0.002;2022-10-23T00:45:27;10.85;;;2.67;;
46719;SDS011;32452;51.382;-0.002;2022-10-23T00:48:16;14.73;;;3.10;;
46719;SDS011;32452;51.382;-0.002;2022-10-23T00:51:01;13.80;;;3.30;;
46719;SDS011;32452;51.382;-0.002;2022-10-23T00:53:48;12.82;;;3.15;;
46719;SDS011;32452;51.382;-0.002;2022-10-23T00:57:07;11.25;;;2.95;;
46719;SDS011;32452;51.382;-0.002;2022-10-23T00:59:57;14.75;;;3.50;;
46719;SDS011;32452;51.382;-0.002;2022-10-23T01:02:43;14.80;;;3.50;;
46719;SDS011;32452;51.382;-0.002;2022-10-23T01:05:45;17.40;;;3.10;;
46719;SDS011;32452;51.382;-0.002;2022-10-23T01:18:20;15.27;;;3.28;;
46719;SDS011;32452;51.382;-0.002;2022-10-23T01:24:59;14.77;;;2.97;;
46719;SDS011;32452;51.382;-0.002;2022-10-23T01:28:00;9.30;;;2.60;;
46719;SDS011;32452;51.382;-0.002;2022-10-23T01:30:48;15.77;;;4.30;;
46719;SDS011;32452;51.382;-0.002;2022-10-23T01:33:37;12.65;;;2.88;;
46719;SDS011;32452;51.382;-0.002;2022-10-23T01:36:27;13.52;;;3.42;;
46719;SDS011;32452;51.382;-0.002;2022-10-23T01:39:25;13.95;;;4.55;;
46719;SDS011;32452;51.382;-0.002;2022-10-23T01:42:17;17.30;;;3.83;;
46719;SDS011;32452;51.382;-0.002;2022-10-23T01:45:07;14.32;;;3.63;;
46719;SDS011;32452;51.382;-0.002;2022-10-23T01:47:59;15.98;;;4.20;;
46719;SDS011;32452;51.382;-0.002;2022-10-23T01:50:46;18.00;;;4.05;;
46719;SDS011;32452;51.382;-0.002;2022-10-23T01:53:35;18.42;;;3.92;;
46719;SDS011;32452;51.382;-0.002;2022-10-23T01:56:28;14.80;;;3.65;;
46719;SDS011;32452;51.382;-0.002;2022-10-23T01:59:20;14.02;;;4.82;;
46719;SDS011;32452;51.382;-0.002;2022-10-23T02:02:39;14.90;;;4.43;;
46719;SDS011;32452;51.382;-0.002;2022-10-23T02:05:30;15.35;;;4.75;;
46719;SDS011;32452;51.382;-0.002;2022-10-23T02:08:48;15.27;;;4.20;;
46719;SDS011;32452;51.382;-0.002;2022-10-23T02:11:47;13.05;;;3.90;;
46719;SDS011;32452;51.382;-0.002;2022-10-23T02:21:37;11.75;;;3.97;;
46719;SDS011;32452;51.382;-0.002;2022-10-23T02:24:35;12.68;;;3.97;;
46719;SDS011;32452;51.382;-0.002;2022-10-23T02:27:31;19.27;;;4.90;;
46719;SDS011;32452;51.382;-0.002;2022-10-23T02:30:34;13.68;;;4.10;;
46719;SDS011;32452;51.382;-0.002;2022-10-23T02:33:27;14.43;;;4.40;;
46719;SDS011;32452;51.382;-0.002;2022-10-23T02:36:24;12.90;;;4.22;;
46719;SDS011;32452;51.382;-0.002;2022-10-23T02:39:10;13.57;;;4.43;;
46719;SDS011;32452;51.382;-0.002;2022-10-23T02:45:28;13.23;;;3.28;;
46719;SDS011;32452;51.382;-0.002;2022-10-23T02:48:21;11.68;;;3.70;;
46719;SDS011;32452;51.382;-0.002;2022-10-23T02:51:19;13.48;;;4.38;;
46719;SDS011;32452;51.382;-0.002;2022-10-23T02:58:09;16.20;;;4.25;;
46719;SDS011;32452;51.382;-0.002;2022-10-23T03:01:04;16.10;;;5.10;;
46719;SDS011;32452;51.382;-0.002;2022-10-23T03:03:56;16.42;;;4.65;;
46719;SDS011;32452;51.382;-0.002;2022-10-23T03:06:49;18.55;;;4.28;;
46719;SDS011;32452;51.382;-0.002;2022-10-23T03:09:54;17.05;;;4.57;;
46719;SDS011;32452;51.382;-0.002;2022-10-23T03:13:15;14.18;;;3.95;;
46719;SDS011;32452;51.382;-0.002;2022-10-23T03:16:08;13.68;;;4.30;;
46719;SDS011;32452;51.382;-0.002;2022-10-23T03:18:54;13.50;;;4.80;;
46719;SDS011;32452;51.382;-0.002;2022-10-23T03:21:39;16.23;;;4.40;;
46719;SDS011;32452;51.382;-0.002;2022-10-23T03:24:27;16.58;;;4.82;;
46719;SDS011;32452;51.382;-0.002;2022-10-23T03:27:23;17.85;;;4.72;;
46719;SDS011;32452;51.382;-0.002;2022-10-23T03:30:08;11.98;;;4.30;;
46719;SDS011;32452;51.382;-0.002;2022-10-23T03:32:54;17.38;;;5.57;;
46719;SDS011;32452;51.382;-0.002;2022-10-23T03:35:40;14.43;;;4.65;;
46719;SDS011;32452;51.382;-0.002;2022-10-23T03:38:25;14.75;;;4.68;;
46719;SDS011;32452;51.382;-0.002;2022-10-23T03:41:11;15.35;;;3.95;;
46719;SDS011;32452;51.382;-0.002;2022-10-23T03:43:56;13.80;;;4.32;;
46719;SDS011;32452;51.382;-0.002;2022-10-23T03:46:43;11.90;;;3.97;;
46719;SDS011;32452;51.382;-0.002;2022-10-23T03:49:34;15.18;;;3.85;;
46719;SDS011;32452;51.382;-0.002;2022-10-23T03:52:37;14.35;;;3.20;;
46719;SDS011;32452;51.382;-0.002;2022-10-23T03:55:26;13.60;;;4.47;;
46719;SDS011;32452;51.382;-0.002;2022-10-23T03:58:36;12.13;;;3.83;;
46719;SDS011;32452;51.382;-0.002;2022-10-23T04:01:22;10.68;;;3.17;;
46719;SDS011;32452;51.382;-0.002;2022-10-23T04:04:15;11.52;;;2.75;;
46719;SDS011;32452;51.382;-0.002;2022-10-23T04:07:01;17.35;;;3.58;;
46719;SDS011;32452;51.382;-0.002;2022-10-23T04:09:47;9.48;;;2.78;;
46719;SDS011;32452;51.382;-0.002;2022-10-23T04:12:34;10.00;;;2.65;;
46719;SDS011;32452;51.382;-0.002;2022-10-23T04:15:19;9.10;;;2.67;;
46719;SDS011;32452;51.382;-0.002;2022-10-23T04:18:05;11.85;;;3.17;;
46719;SDS011;32452;51.382;-0.002;2022-10-23T04:20:51;16.90;;;3.50;;
46719;SDS011;32452;51.382;-0.002;2022-10-23T04:23:44;11.30;;;2.83;;
46719;SDS011;32452;51.382;-0.002;2022-10-23T04:26:33;13.25;;;3.15;;
46719;SDS011;32452;51.382;-0.002;2022-10-23T04:29:19;10.25;;;2.75;;
46719;SDS011;32452;51.382;-0.002;2022-10-23T04:32:15;16.23;;;3.55;;
46719;SDS011;32452;51.382;-0.002;2022-10-23T04:35:01;17.08;;;2.97;;
46719;SDS011;32452;51.382;-0.002;2022-10-23T04:37:47;16.02;;;4.05;;
46719;SDS011;32452;51.382;-0.002;2022-10-23T04:40:35;10.52;;;3.05;;
46719;SDS011;32452;51.382;-0.002;2022-10-23T04:43:20;11.82;;;2.65;;
46719;SDS011;32452;51.382;-0.002;2022-10-23T04:46:06;5.13;;;2.10;;
46719;SDS011;32452;51.382;-0.002;2022-10-23T04:48:51;7.38;;;2.60;;
46719;SDS011;32452;51.382;-0.002;2022-10-23T04:51:37;13.95;;;2.90;;
46719;SDS011;32452;51.382;-0.002;2022-10-23T04:54:22;11.02;;;2.70;;
46719;SDS011;32452;51.382;-0.002;2022-10-23T04:57:11;12.57;;;2.85;;
46719;SDS011;32452;51.382;-0.002;2022-10-23T04:59:56;11.98;;;3.03;;
46719;SDS011;32452;51.382;-0.002;2022-10-23T05:02:42;8.63;;;2.30;;
46719;SDS011;32452;51.382;-0.002;2022-10-23T05:05:28;12.15;;;3.38;;
46719;SDS011;32452;51.382;-0.002;2022-10-23T05:08:25;8.00;;;2.25;;
46719;SDS011;32452;51.382;-0.002;2022-10-23T05:11:11;8.15;;;2.05;;
46719;SDS011;32452;51.382;-0.002;2022-10-23T05:13:57;8.15;;;2.10;;
46719;SDS011;32452;51.382;-0.002;2022-10-23T05:16:47;8.70;;;2.35;;
46719;SDS011;32452;51.382;-0.002;2022-10-23T05:19:52;10.10;;;1.83;;
46719;SDS011;32452;51.382;-0.002;2022-10-23T05:22:39;8.13;;;2.35;;
46719;SDS011;32452;51.382;-0.002;2022-10-23T05:25:27;9.05;;;2.40;;
46719;SDS011;32452;51.382;-0.002;2022-10-23T05:28:14;7.60;;;2.00;;
46719;SDS011;32452;51.382;-0.002;2022-10-23T05:30:59;11.65;;;2.70;;
46719;SDS011;32452;51.382;-0.002;2022-10-23T05:33:47;12.57;;;4.30;;
46719;SDS011;32452;51.382;-0.002;2022-10-23T05:36:33;12.27;;;3.22;;
46719;SDS011;32452;51.382;-0.002;2022-10-23T05:39:18;9.82;;;2.33;;
46719;SDS011;32452;51.382;-0.002;2022-10-23T05:42:04;6.95;;;2.30;;
46719;SDS011;32452;51.382;-0.002;2022-10-23T05:44:50;8.00;;;2.17;;
46719;SDS011;32452;51.382;-0.002;2022-10-23T05:47:36;9.15;;;2.35;;
46719;SDS011;32452;51.382;-0.002;2022-10-23T05:50:21;12.45;;;2.08;;
46719;SDS011;32452;51.382;-0.002;2022-10-23T05:53:08;10.80;;;2.20;;
46719;SDS011;32452;51.382;-0.002;2022-10-23T05:55:54;8.65;;;2.10;;
46719;SDS011;32452;51.382;-0.002;2022-10-23T05:58:40;5.05;;;1.77;;
46719;SDS011;32452;51.382;-0.002;2022-10-23T06:01:25;9.25;;;1.90;;
46719;SDS011;32452;51.382;-0.002;2022-10-23T06:04:11;10.05;;;2.72;;
46719;SDS011;32452;51.382;-0.002;2022-10-23T06:06:57;5.70;;;1.90;;
46719;SDS011;32452;51.382;-0.002;2022-10-23T06:09:42;7.75;;;1.52;;
46719;SDS011;32452;51.382;-0.002;2022-10-23T06:12:28;6.43;;;1.33;;
46719;SDS011;32452;51.382;-0.002;2022-10-23T06:15:14;8.27;;;1.75;;
46719;SDS011;32452;51.382;-0.002;2022-10-23T06:18:00;12.35;;;2.25;;
46719;SDS011;32452;51.382;-0.002;2022-10-23T06:20:46;6.88;;;2.10;;
46719;SDS011;32452;51.382;-0.002;2022-10-23T06:23:33;6.53;;;1.90;;
46719;SDS011;32452;51.382;-0.002;2022-10-23T06:26:19;9.23;;;2.72;;
46719;SDS011;32452;51.382;-0.002;2022-10-23T06:29:04;10.70;;;2.10;;
46719;SDS011;32452;51.382;-0.002;2022-10-23T06:31:50;8.43;;;2.22;;
46719;SDS011;32452;51.382;-0.002;2022-10-23T06:34:35;12.38;;;2.20;;
46719;SDS011;32452;51.382;-0.002;2022-10-23T06:37:21;7.88;;;1.83;;
46719;SDS011;32452;51.382;-0.002;2022-10-23T06:40:06;8.95;;;2.17;;
46719;SDS011;32452;51.382;-0.002;2022-10-23T06:42:54;9.75;;;2.78;;
46719;SDS011;32452;51.382;-0.002;2022-10-23T06:45:39;8.98;;;2.20;;
46719;SDS011;32452;51.382;-0.002;2022-10-23T06:48:25;9.32;;;3.03;;
46719;SDS011;32452;51.382;-0.002;2022-10-23T06:51:11;7.78;;;2.20;;
46719;SDS011;32452;51.382;-0.002;2022-10-23T06:53:58;13.50;;;2.60;;
46719;SDS011;32452;51.382;-0.002;2022-10-23T06:56:44;8.23;;;2.40;;
46719;SDS011;32452;51.382;-0.002;2022-10-23T06:59:29;8.63;;;2.67;;
46719;SDS011;32452;51.382;-0.002;2022-10-23T07:02:15;10.00;;;3.10;;
46719;SDS011;32452;51.382;-0.002;2022-10-23T07:05:01;11.98;;;3.78;;
46719;SDS011;32452;51.382;-0.002;2022-10-23T07:07:47;9.02;;;2.47;;
46719;SDS011;32452;51.382;-0.002;2022-10-23T07:10:33;9.38;;;2.78;;
46719;SDS011;32452;51.382;-0.002;2022-10-23T07:13:18;7.72;;;2.75;;
46719;SDS011;32452;51.382;-0.002;2022-10-23T07:16:07;7.97;;;2.22;;
46719;SDS011;32452;51.382;-0.002;2022-10-23T07:18:55;11.70;;;3.03;;
46719;SDS011;32452;51.382;-0.002;2022-10-23T07:21:43;10.55;;;2.45;;
46719;SDS011;32452;51.382;-0.002;2022-10-23T07:24:29;9.63;;;2.13;;
46719;SDS011;32452;51.382;-0.002;2022-10-23T07:27:15;10.05;;;2.75;;
46719;SDS011;32452;51.382;-0.002;2022-10-23T07:30:01;9.45;;;2.55;;
46719;SDS011;32452;51.382;-0.002;2022-10-23T07:32:46;9.63;;;2.50;;
46719;SDS011;32452;51.382;-0.002;2022-10-23T07:35:32;8.40;;;2.22;;
46719;SDS011;32452;51.382;-0.002;2022-10-23T07:38:23;10.27;;;2.55;;
46719;SDS011;32452;51.382;-0.002;2022-10-23T07:41:08;9.40;;;2.35;;
46719;SDS011;32452;51.382;-0.002;2022-10-23T07:43:56;8.82;;;2.70;;
46719;SDS011;32452;51.382;-0.002;2022-10-23T07:46:41;6.13;;;2.40;;
46719;SDS011;32452;51.382;-0.002;2022-10-23T07:49:27;8.65;;;2.10;;
46719;SDS011;32452;51.382;-0.002;2022-10-23T07:52:13;10.32;;;2.70;;
46719;SDS011;32452;51.382;-0.002;2022-10-23T07:54:58;11.35;;;3.40;;
46719;SDS011;32452;51.382;-0.002;2022-10-23T07:57:44;7.85;;;2.28;;
46719;SDS011;32452;51.382;-0.002;2022-10-23T08:00:30;6.95;;;2.55;;
46719;SDS011;32452;51.382;-0.002;2022-10-23T08:03:15;7.57;;;2.42;;
46719;SDS011;32452;51.382;-0.002;2022-10-23T08:06:00;11.02;;;2.50;;
46719;SDS011;32452;51.382;-0.002;2022-10-23T08:08:46;13.30;;;3.70;;
46719;SDS011;32452;51.382;-0.002;2022-10-23T08:11:31;8.40;;;2.83;;
46719;SDS011;32452;51.382;-0.002;2022-10-23T08:14:20;11.18;;;2.97;;
46719;SDS011;32452;51.382;-0.002;2022-10-23T08:17:05;11.77;;;3.55;;
46719;SDS011;32452;51.382;-0.002;2022-10-23T08:19:53;12.88;;;3.58;;
46719;SDS011;32452;51.382;-0.002;2022-10-23T08:22:39;11.38;;;3.13;;
46719;SDS011;32452;51.382;-0.002;2022-10-23T08:25:24;8.98;;;2.78;;
46719;SDS011;32452;51.382;-0.002;2022-10-23T08:28:14;14.40;;;3.15;;
46719;SDS011;32452;51.382;-0.002;2022-10-23T08:31:34;9.35;;;2.42;;
46719;SDS011;32452;51.382;-0.002;2022-10-23T08:34:12;18.48;;;3.08;;
46719;SDS011;32452;51.382;-0.002;2022-10-23T08:36:59;13.77;;;3.65;;
46719;SDS011;32452;51.382;-0.002;2022-10-23T08:39:44;10.65;;;2.95;;
46719;SDS011;32452;51.382;-0.002;2022-10-23T08:42:34;10.48;;;2.72;;
46719;SDS011;32452;51.382;-0.002;2022-10-23T08:45:27;17.15;;;3.30;;
46719;SDS011;32452;51.382;-0.002;2022-10-23T08:48:25;16.50;;;3.03;;
46719;SDS011;32452;51.382;-0.002;2022-10-23T08:51:16;14.23;;;3.42;;
46719;SDS011;32452;51.382;-0.002;2022-10-23T08:58:12;17.52;;;3.47;;
46719;SDS011;32452;51.382;-0.002;2022-10-23T09:01:22;8.60;;;2.90;;
46719;SDS011;32452;51.382;-0.002;2022-10-23T09:04:14;7.43;;;2.70;;
46719;SDS011;32452;51.382;-0.002;2022-10-23T09:10:01;7.97;;;2.95;;
46719;SDS011;32452;51.382;-0.002;2022-10-23T09:14:19;7.03;;;2.65;;
46719;SDS011;32452;51.382;-0.002;2022-10-23T09:23:19;8.55;;;2.55;;
46719;SDS011;32452;51.382;-0.002;2022-10-23T09:26:10;7.95;;;3.05;;
46719;SDS011;32452;51.382;-0.002;2022-10-23T09:29:16;7.80;;;2.58;;
46719;SDS011;32452;51.382;-0.002;2022-10-23T09:32:06;7.97;;;2.72;;
46719;SDS011;32452;51.382;-0.002;2022-10-23T09:34:53;9.10;;;2.00;;
46719;SDS011;32452;51.382;-0.002;2022-10-23T09:37:44;6.38;;;2.08;;
46719;SDS011;32452;51.382;-0.002;2022-10-23T09:40:37;8.00;;;2.03;;
46719;SDS011;32452;51.382;-0.002;2022-10-23T09:43:24;6.13;;;1.83;;
46719;SDS011;32452;51.382;-0.002;2022-10-23T09:46:11;7.32;;;1.98;;
46719;SDS011;32452;51.382;-0.002;2022-10-23T09:48:56;7.10;;;1.90;;
46719;SDS011;32452;51.382;-0.002;2022-10-23T09:55:21;5.68;;;1.75;;
46719;SDS011;32452;51.382;-0.002;2022-10-23T09:58:03;7.78;;;1.90;;
46719;SDS011;32452;51.382;-0.002;2022-10-23T10:00:49;6.90;;;2.20;;
46719;SDS011;32452;51.382;-0.002;2022-10-23T10:03:46;6.55;;;1.98;;
46719;SDS011;32452;51.382;-0.002;2022-10-23T10:06:33;7.45;;;1.95;;
46719;SDS011;32452;51.382;-0.002;2022-10-23T10:09:19;10.27;;;2.83;;
46719;SDS011;32452;51.382;-0.002;2022-10-23T10:15:41;8.85;;;1.85;;
46719;SDS011;32452;51.382;-0.002;2022-10-23T10:22:01;9.52;;;2.53;;
46719;SDS011;32452;51.382;-0.002;2022-10-23T10:25:02;6.57;;;2.80;;
46719;SDS011;32452;51.382;-0.002;2022-10-23T10:31:06;9.00;;;2.05;;
46719;SDS011;32452;51.382;-0.002;2022-10-23T10:34:15;9.50;;;4.20;;
46719;SDS011;32452;51.382;-0.002;2022-10-23T10:37:06;11.57;;;2.80;;
46719;SDS011;32452;51.382;-0.002;2022-10-23T10:40:17;12.65;;;2.67;;
46719;SDS011;32452;51.382;-0.002;2022-10-23T10:43:22;10.73;;;2.20;;
46719;SDS011;32452;51.382;-0.002;2022-10-23T10:46:15;8.50;;;2.15;;
46719;SDS011;32452;51.382;-0.002;2022-10-23T10:49:18;8.52;;;2.13;;
46719;SDS011;32452;51.382;-0.002;2022-10-23T10:55:22;8.68;;;2.30;;
46719;SDS011;32452;51.382;-0.002;2022-10-23T11:01:58;7.50;;;2.30;;
46719;SDS011;32452;51.382;-0.002;2022-10-23T11:08:06;4.38;;;1.60;;
46719;SDS011;32452;51.382;-0.002;2022-10-23T11:10:59;6.95;;;1.50;;
46719;SDS011;32452;51.382;-0.002;2022-10-23T11:13:50;5.05;;;1.60;;
46719;SDS011;32452;51.382;-0.002;2022-10-23T11:16:37;10.30;;;2.42;;
46719;SDS011;32452;51.382;-0.002;2022-10-23T11:19:36;10.15;;;2.20;;
46719;SDS011;32452;51.382;-0.002;2022-10-23T11:31:43;9.48;;;2.20;;
46719;SDS011;32452;51.382;-0.002;2022-10-23T11:37:29;6.63;;;1.95;;
46719;SDS011;32452;51.382;-0.002;2022-10-23T11:40:22;9.32;;;2.15;;
46719;SDS011;32452;51.382;-0.002;2022-10-23T11:43:08;9.60;;;2.03;;
46719;SDS011;32452;51.382;-0.002;2022-10-23T11:45:54;11.95;;;2.25;;
46719;SDS011;32452;51.382;-0.002;2022-10-23T11:48:40;12.50;;;2.20;;
46719;SDS011;32452;51.382;-0.002;2022-10-23T11:51:28;8.63;;;2.00;;
46719;SDS011;32452;51.382;-0.002;2022-10-23T11:54:22;5.95;;;1.70;;
46719;SDS011;32452;51.382;-0.002;2022-10-23T11:57:11;11.27;;;2.22;;
46719;SDS011;32452;51.382;-0.002;2022-10-23T11:59:58;9.95;;;2.05;;
46719;SDS011;32452;51.382;-0.002;2022-10-23T12:02:48;10.30;;;2.08;;
46719;SDS011;32452;51.382;-0.002;2022-10-23T12:05:42;8.63;;;2.30;;
46719;SDS011;32452;51.382;-0.002;2022-10-23T12:08:30;10.80;;;2.20;;
46719;SDS011;32452;51.382;-0.002;2022-10-23T12:11:25;6.72;;;1.70;;
46719;SDS011;32452;51.382;-0.002;2022-10-23T12:17:29;8.48;;;2.15;;
46719;SDS011;32452;51.382;-0.002;2022-10-23T12:20:23;8.90;;;2.15;;
46719;SDS011;32452;51.382;-0.002;2022-10-23T12:26:38;8.80;;;2.10;;
46719;SDS011;32452;51.382;-0.002;2022-10-23T12:32:49;6.22;;;1.75;;
46719;SDS011;32452;51.382;-0.002;2022-10-23T12:39:01;9.57;;;1.90;;
46719;SDS011;32452;51.382;-0.002;2022-10-23T12:41:46;13.45;;;2.10;;
46719;SDS011;32452;51.382;-0.002;2022-10-23T12:44:32;9.98;;;1.90;;
46719;SDS011;32452;51.382;-0.002;2022-10-23T12:47:17;11.93;;;2.63;;
46719;SDS011;32452;51.382;-0.002;2022-10-23T12:50:13;7.03;;;1.88;;
46719;SDS011;32452;51.382;-0.002;2022-10-23T12:53:03;8.57;;;2.42;;
46719;SDS011;32452;51.382;-0.002;2022-10-23T12:55:55;8.15;;;1.80;;
46719;SDS011;32452;51.382;-0.002;2022-10-23T12:58:46;9.07;;;2.17;;
46719;SDS011;32452;51.382;-0.002;2022-10-23T13:01:35;6.90;;;1.98;;
46719;SDS011;32452;51.382;-0.002;2022-10-23T13:04:29;7.55;;;1.65;;
46719;SDS011;32452;51.382;-0.002;2022-10-23T13:07:24;5.75;;;2.42;;
46719;SDS011;32452;51.382;-0.002;2022-10-23T13:10:13;9.38;;;2.60;;
46719;SDS011;32452;51.382;-0.002;2022-10-23T13:13:04;7.47;;;1.95;;
46719;SDS011;32452;51.382;-0.002;2022-10-23T13:15:51;10.70;;;2.13;;
46719;SDS011;32452;51.382;-0.002;2022-10-23T13:18:38;5.70;;;1.50;;
46719;SDS011;32452;51.382;-0.002;2022-10-23T13:21:26;11.85;;;1.85;;
46719;SDS011;32452;51.382;-0.002;2022-10-23T13:24:18;8.35;;;1.73;;
46719;SDS011;32452;51.382;-0.002;2022-10-23T13:30:31;6.15;;;2.28;;
46719;SDS011;32452;51.382;-0.002;2022-10-23T13:33:22;11.07;;;3.25;;
46719;SDS011;32452;51.382;-0.002;2022-10-23T13:41:45;7.93;;;2.80;;
46719;SDS011;32452;51.382;-0.002;2022-10-23T13:44:31;8.55;;;2.65;;
46719;SDS011;32452;51.382;-0.002;2022-10-23T13:47:17;10.05;;;2.95;;
46719;SDS011;32452;51.382;-0.002;2022-10-23T13:50:02;7.07;;;2.90;;
46719;SDS011;32452;51.382;-0.002;2022-10-23T13:52:50;8.30;;;2.65;;
46719;SDS011;32452;51.382;-0.002;2022-10-23T13:55:36;6.28;;;2.58;;
46719;SDS011;32452;51.382;-0.002;2022-10-23T13:58:24;7.05;;;2.50;;
46719;SDS011;32452;51.382;-0.002;2022-10-23T14:01:30;6.50;;;2.50;;
46719;SDS011;32452;51.382;-0.002;2022-10-23T14:04:19;9.95;;;2.35;;
46719;SDS011;32452;51.382;-0.002;2022-10-23T14:07:04;7.90;;;3.03;;
46719;SDS011;32452;51.382;-0.002;2022-10-23T14:09:50;7.22;;;2.75;;
46719;SDS011;32452;51.382;-0.002;2022-10-23T14:12:39;8.73;;;3.00;;
46719;SDS011;32452;51.382;-0.002;2022-10-23T14:15:26;12.10;;;3.38;;
46719;SDS011;32452;51.382;-0.002;2022-10-23T14:18:12;10.23;;;3.25;;
46719;SDS011;32452;51.382;-0.002;2022-10-23T14:21:00;10.15;;;3.00;;
46719;SDS011;32452;51.382;-0.002;2022-10-23T14:23:46;9.57;;;3.05;;
46719;SDS011;32452;51.382;-0.002;2022-10-23T14:26:32;10.18;;;4.13;;
46719;SDS011;32452;51.382;-0.002;2022-10-23T14:29:18;8.05;;;3.08;;
46719;SDS011;32452;51.382;-0.002;2022-10-23T14:32:08;12.63;;;3.92;;
46719;SDS011;32452;51.382;-0.002;2022-10-23T14:34:53;13.32;;;3.50;;
46719;SDS011;32452;51.382;-0.002;2022-10-23T14:37:39;8.00;;;3.47;;
46719;SDS011;32452;51.382;-0.002;2022-10-23T14:40:24;11.95;;;3.38;;
46719;SDS011;32452;51.382;-0.002;2022-10-23T14:43:10;9.43;;;3.65;;
46719;SDS011;32452;51.382;-0.002;2022-10-23T14:45:55;6.50;;;3.20;;
46719;SDS011;32452;51.382;-0.002;2022-10-23T14:48:41;7.43;;;3.10;;
46719;SDS011;32452;51.382;-0.002;2022-10-23T14:51:32;13.15;;;3.85;;
46719;SDS011;32452;51.382;-0.002;2022-10-23T14:54:19;6.20;;;3.08;;
46719;SDS011;32452;51.382;-0.002;2022-10-23T14:57:04;13.23;;;4.28;;
46719;SDS011;32452;51.382;-0.002;2022-10-23T14:59:50;8.90;;;3.58;;
46719;SDS011;32452;51.382;-0.002;2022-10-23T15:02:36;9.23;;;3.72;;
46719;SDS011;32452;51.382;-0.002;2022-10-23T15:05:21;8.23;;;3.92;;
46719;SDS011;32452;51.382;-0.002;2022-10-23T15:08:07;15.18;;;3.50;;
46719;SDS011;32452;51.382;-0.002;2022-10-23T15:10:52;9.18;;;3.53;;
46719;SDS011;32452;51.382;-0.002;2022-10-23T15:13:38;12.55;;;4.13;;
46719;SDS011;32452;51.382;-0.002;2022-10-23T15:16:23;10.25;;;3.92;;
46719;SDS011;32452;51.382;-0.002;2022-10-23T15:19:09;7.82;;;4.43;;
46719;SDS011;32452;51.382;-0.002;2022-10-23T15:22:01;9.88;;;4.03;;
46719;SDS011;32452;51.382;-0.002;2022-10-23T15:24:47;12.40;;;3.42;;
46719;SDS011;32452;51.382;-0.002;2022-10-23T15:27:33;13.45;;;5.07;;
46719;SDS011;32452;51.382;-0.002;2022-10-23T15:30:19;12.32;;;4.18;;
46719;SDS011;32452;51.382;-0.002;2022-10-23T15:33:04;12.25;;;3.58;;
46719;SDS011;32452;51.382;-0.002;2022-10-23T15:35:50;9.13;;;3.42;;
46719;SDS011;32452;51.382;-0.002;2022-10-23T15:38:36;12.15;;;3.65;;
46719;SDS011;32452;51.382;-0.002;2022-10-23T15:41:29;12.82;;;4.60;;
46719;SDS011;32452;51.382;-0.002;2022-10-23T15:44:16;11.25;;;3.35;;
46719;SDS011;32452;51.382;-0.002;2022-10-23T15:47:03;15.52;;;4.32;;
46719;SDS011;32452;51.382;-0.002;2022-10-23T15:49:49;12.85;;;3.90;;
46719;SDS011;32452;51.382;-0.002;2022-10-23T15:52:34;14.38;;;3.88;;
46719;SDS011;32452;51.382;-0.002;2022-10-23T15:55:20;17.23;;;4.63;;
46719;SDS011;32452;51.382;-0.002;2022-10-23T15:58:05;11.70;;;3.90;;
46719;SDS011;32452;51.382;-0.002;2022-10-23T16:00:51;13.40;;;4.18;;
46719;SDS011;32452;51.382;-0.002;2022-10-23T16:06:47;15.23;;;3.47;;
46719;SDS011;32452;51.382;-0.002;2022-10-23T16:09:33;6.15;;;1.95;;
46719;SDS011;32452;51.382;-0.002;2022-10-23T16:12:18;8.75;;;2.53;;
46719;SDS011;32452;51.382;-0.002;2022-10-23T16:15:04;2.47;;;1.10;;
46719;SDS011;32452;51.382;-0.002;2022-10-23T16:17:51;6.55;;;2.47;;
46719;SDS011;32452;51.382;-0.002;2022-10-23T16:20:41;6.47;;;1.25;;
46719;SDS011;32452;51.382;-0.002;2022-10-23T16:23:26;5.13;;;1.50;;
46719;SDS011;32452;51.382;-0.002;2022-10-23T16:26:12;5.85;;;1.10;;
46719;SDS011;32452;51.382;-0.002;2022-10-23T16:28:58;2.92;;;0.77;;
46719;SDS011;32452;51.382;-0.002;2022-10-23T16:31:46;4.72;;;1.02;;
46719;SDS011;32452;51.382;-0.002;2022-10-23T16:34:31;2.72;;;0.85;;
46719;SDS011;32452;51.382;-0.002;2022-10-23T16:37:17;5.03;;;0.90;;
46719;SDS011;32452;51.382;-0.002;2022-10-23T16:40:03;4.82;;;0.90;;
46719;SDS011;32452;51.382;-0.002;2022-10-23T16:42:49;5.38;;;1.58;;
46719;SDS011;32452;51.382;-0.002;2022-10-23T16:45:34;7.72;;;1.20;;
46719;SDS011;32452;51.382;-0.002;2022-10-23T16:48:21;4.93;;;1.13;;
46719;SDS011;32452;51.382;-0.002;2022-10-23T16:51:11;12.50;;;6.82;;
46719;SDS011;32452;51.382;-0.002;2022-10-23T16:53:58;13.82;;;5.60;;
46719;SDS011;32452;51.382;-0.002;2022-10-23T16:56:44;21.77;;;12.70;;
46719;SDS011;32452;51.382;-0.002;2022-10-23T16:59:30;12.02;;;6.00;;
46719;SDS011;32452;51.382;-0.002;2022-10-23T17:02:16;14.85;;;4.00;;
46719;SDS011;32452;51.382;-0.002;2022-10-23T17:05:02;7.68;;;3.42;;
46719;SDS011;32452;51.382;-0.002;2022-10-23T17:07:47;5.15;;;1.48;;
46719;SDS011;32452;51.382;-0.002;2022-10-23T17:10:33;6.13;;;1.73;;
46719;SDS011;32452;51.382;-0.002;2022-10-23T17:13:19;6.65;;;1.88;;
46719;SDS011;32452;51.382;-0.002;2022-10-23T17:18:51;7.10;;;2.10;;
46719;SDS011;32452;51.382;-0.002;2022-10-23T17:21:37;5.13;;;1.70;;
46719;SDS011;32452;51.382;-0.002;2022-10-23T17:24:25;5.85;;;1.80;;
46719;SDS011;32452;51.382;-0.002;2022-10-23T17:27:10;3.63;;;1.50;;
46719;SDS011;32452;51.382;-0.002;2022-10-23T17:29:56;8.52;;;1.95;;
46719;SDS011;32452;51.382;-0.002;2022-10-23T17:32:42;5.80;;;2.20;;
46719;SDS011;32452;51.382;-0.002;2022-10-23T17:35:28;8.98;;;2.45;;
46719;SDS011;32452;51.382;-0.002;2022-10-23T17:38:13;8.88;;;1.92;;
46719;SDS011;32452;51.382;-0.002;2022-10-23T17:41:03;5.53;;;1.50;;
46719;SDS011;32452;51.382;-0.002;2022-10-23T17:43:50;6.95;;;1.55;;
46719;SDS011;32452;51.382;-0.002;2022-10-23T17:46:40;6.40;;;1.85;;
46719;SDS011;32452;51.382;-0.002;2022-10-23T17:49:25;6.20;;;1.63;;
46719;SDS011;32452;51.382;-0.002;2022-10-23T17:52:11;18.50;;;2.95;;
46719;SDS011;32452;51.382;-0.002;2022-10-23T17:54:58;7.47;;;2.05;;
46719;SDS011;32452;51.382;-0.002;2022-10-23T17:57:43;16.90;;;2.80;;
46719;SDS011;32452;51.382;-0.002;2022-10-23T18:00:29;22.33;;;10.70;;
46719;SDS011;32452;51.382;-0.002;2022-10-23T18:03:15;30.40;;;7.72;;
46719;SDS011;32452;51.382;-0.002;2022-10-23T18:06:07;23.30;;;8.77;;
46719;SDS011;32452;51.382;-0.002;2022-10-23T18:09:01;43.95;;;25.00;;
46719;SDS011;32452;51.382;-0.002;2022-10-23T18:11:49;47.50;;;23.27;;
46719;SDS011;32452;51.382;-0.002;2022-10-23T18:14:35;23.90;;;7.20;;
46719;SDS011;32452;51.382;-0.002;2022-10-23T18:17:21;28.50;;;7.97;;
46719;SDS011;32452;51.382;-0.002;2022-10-23T18:20:07;18.27;;;3.63;;
46719;SDS011;32452;51.382;-0.002;2022-10-23T18:22:52;34.53;;;12.80;;